createdAt,value
2023-04-30T00:00:36.593Z,23.40
2023-04-30T00:03:05.059Z,23.30
2023-04-30T00:05:33.219Z,23.30
2023-04-30T00:08:01.486Z,23.30
2023-04-30T00:10:30.419Z,23.20
2023-04-30T00:12:59.211Z,23.20
2023-04-30T00:15:27.444Z,23.20
2023-04-30T00:17:55.392Z,23.20
2023-04-30T00:20:23.222Z,23.20
2023-04-30T00:22:53.246Z,23.10
2023-04-30T00:25:21.559Z,23.10
2023-04-30T00:27:49.460Z,23.10
2023-04-30T00:30:17.345Z,23.10
2023-04-30T00:32:46.301Z,23.10
2023-04-30T00:35:14.038Z,23.10
2023-04-30T00:37:42.211Z,23.10
2023-04-30T00:40:10.456Z,23.10
2023-04-30T00:42:38.396Z,23.00
2023-04-30T00:45:07.746Z,23.10
2023-04-30T00:47:36.212Z,23.10
2023-04-30T00:50:04.181Z,23.10
2023-04-30T00:52:32.578Z,23.00
2023-04-30T00:55:00.713Z,23.00
2023-04-30T00:57:29.505Z,23.00
2023-04-30T00:59:57.661Z,23.00
2023-04-30T01:02:26.509Z,23.00
2023-04-30T01:04:55.769Z,23.00
2023-04-30T01:07:28.882Z,23.00
2023-04-30T01:09:57.265Z,23.00
2023-04-30T01:12:59.085Z,22.90
2023-04-30T01:15:43.549Z,22.90
2023-04-30T01:18:32.511Z,22.90
2023-04-30T01:21:07.172Z,22.90
2023-04-30T01:24:07.377Z,22.90
2023-04-30T01:27:02.069Z,22.90
2023-04-30T01:29:32.478Z,22.90
2023-04-30T01:32:03.141Z,22.90
2023-04-30T01:34:31.616Z,22.80
2023-04-30T01:37:34.614Z,22.80
2023-04-30T01:40:36.717Z,22.90
2023-04-30T01:43:19.434Z,22.90
2023-04-30T01:46:31.850Z,22.80
2023-04-30T01:49:38.504Z,22.80
2023-04-30T01:52:48.557Z,22.80
2023-04-30T01:55:35.855Z,22.80
2023-04-30T01:58:10.719Z,22.70
2023-04-30T02:00:39.066Z,22.70
2023-04-30T02:03:08.065Z,22.70
2023-04-30T02:05:36.456Z,22.70
2023-04-30T02:08:05.045Z,22.70
2023-04-30T02:10:35.693Z,22.70
2023-04-30T02:13:03.629Z,22.70
2023-04-30T02:15:32.247Z,22.70
2023-04-30T02:18:00.720Z,22.70
2023-04-30T02:20:29.078Z,22.60
2023-04-30T02:22:57.371Z,22.70
2023-04-30T02:25:27.231Z,22.70
2023-04-30T02:27:55.621Z,22.70
2023-04-30T02:30:23.698Z,22.60
2023-04-30T02:32:51.700Z,22.60
2023-04-30T02:35:19.620Z,22.60
2023-04-30T02:37:47.261Z,22.60
2023-04-30T02:40:15.152Z,22.60
2023-04-30T02:42:42.657Z,22.60
2023-04-30T02:45:10.508Z,22.60
2023-04-30T02:47:38.268Z,22.60
2023-04-30T02:50:07.055Z,22.60
2023-04-30T02:52:34.821Z,22.60
2023-04-30T02:55:02.490Z,22.60
2023-04-30T02:57:30.448Z,22.60
2023-04-30T02:59:58.135Z,22.60
2023-04-30T03:02:26.430Z,22.50
2023-04-30T03:04:54.407Z,22.50
2023-04-30T03:07:22.370Z,22.50
2023-04-30T03:09:50.730Z,22.50
2023-04-30T03:12:18.293Z,22.50
2023-04-30T03:14:45.974Z,22.50
2023-04-30T03:17:15.075Z,22.50
2023-04-30T03:19:42.827Z,22.50
2023-04-30T03:22:11.718Z,22.40
2023-04-30T03:24:39.522Z,22.50
2023-04-30T03:27:07.100Z,22.50
2023-04-30T03:29:35.337Z,22.40
2023-04-30T03:32:03.535Z,22.40
2023-04-30T03:34:32.768Z,22.40
2023-04-30T03:37:02.180Z,22.40
2023-04-30T03:39:30.224Z,22.40
2023-04-30T03:41:58.488Z,22.40
2023-04-30T03:44:26.468Z,22.40
2023-04-30T03:46:54.143Z,22.40
2023-04-30T03:49:21.897Z,22.40
2023-04-30T03:51:49.541Z,22.40
2023-04-30T03:54:17.347Z,22.40
2023-04-30T03:56:45.401Z,22.40
2023-04-30T03:59:13.263Z,22.30
2023-04-30T04:05:23.633Z,22.30
2023-04-30T04:07:51.397Z,22.30
2023-04-30T04:10:19.189Z,22.30
2023-04-30T04:12:46.971Z,22.30
2023-04-30T04:15:15.422Z,22.30
2023-04-30T04:17:43.224Z,22.30
2023-04-30T04:20:13.865Z,22.30
2023-04-30T04:22:44.744Z,22.30
2023-04-30T04:25:14.216Z,22.30
2023-04-30T04:27:45.353Z,22.30
2023-04-30T04:30:14.166Z,22.30
2023-04-30T04:32:50.560Z,22.20
2023-04-30T04:35:44.614Z,22.20
2023-04-30T04:38:13.461Z,22.20
2023-04-30T04:40:41.597Z,22.20
2023-04-30T04:43:11.948Z,22.20
2023-04-30T04:45:40.958Z,22.20
2023-04-30T04:48:08.649Z,22.20
2023-04-30T04:50:36.489Z,22.20
2023-04-30T04:53:04.324Z,22.20
2023-04-30T04:55:32.113Z,22.20
2023-04-30T04:58:00.116Z,22.20
2023-04-30T05:00:28.012Z,22.20
2023-04-30T05:02:56.393Z,22.20
2023-04-30T05:05:24.120Z,22.20
2023-04-30T05:07:52.785Z,22.20
2023-04-30T05:10:20.587Z,22.20
2023-04-30T05:12:48.129Z,22.10
2023-04-30T05:15:15.927Z,22.10
2023-04-30T05:17:43.762Z,22.20
2023-04-30T05:20:12.967Z,22.10
2023-04-30T05:22:40.796Z,22.10
2023-04-30T05:25:09.116Z,22.10
2023-04-30T05:27:37.027Z,22.10
2023-04-30T05:30:05.379Z,22.10
2023-04-30T05:32:33.220Z,22.10
2023-04-30T05:35:01.265Z,22.10
2023-04-30T05:37:29.008Z,22.10
2023-04-30T05:39:56.858Z,22.20
2023-04-30T05:42:24.970Z,22.10
2023-04-30T05:44:52.842Z,22.10
2023-04-30T05:47:20.888Z,22.10
2023-04-30T05:49:49.312Z,22.10
2023-04-30T05:52:17.859Z,22.10
2023-04-30T05:54:46.843Z,22.10
2023-04-30T05:57:16.487Z,22.10
2023-04-30T05:59:44.340Z,22.10
2023-04-30T06:02:12.177Z,22.10
2023-04-30T06:04:40.094Z,22.10
2023-04-30T06:07:07.752Z,22.10
2023-04-30T06:09:36.890Z,22.20
2023-04-30T06:12:05.067Z,22.10
2023-04-30T06:14:33.291Z,22.20
2023-04-30T06:17:01.165Z,22.20
2023-04-30T06:19:28.891Z,22.20
2023-04-30T06:21:56.622Z,22.20
2023-04-30T06:24:24.121Z,22.20
2023-04-30T06:26:52.064Z,22.20
2023-04-30T06:29:19.610Z,22.20
2023-04-30T06:31:47.294Z,22.20
2023-04-30T06:34:17.695Z,22.20
2023-04-30T06:36:45.421Z,22.20
2023-04-30T06:39:16.299Z,22.20
2023-04-30T06:41:44.300Z,22.20
2023-04-30T06:44:12.105Z,22.20
2023-04-30T06:46:40.067Z,22.20
2023-04-30T06:49:07.920Z,22.20
2023-04-30T06:51:35.608Z,22.20
2023-04-30T06:54:03.357Z,22.20
2023-04-30T06:56:31.006Z,22.20
2023-04-30T06:58:58.798Z,22.20
2023-04-30T07:01:26.739Z,22.20
2023-04-30T07:03:55.264Z,22.20
2023-04-30T07:06:23.337Z,22.20
2023-04-30T07:08:51.042Z,22.30
2023-04-30T07:11:19.037Z,22.30
2023-04-30T07:13:46.990Z,22.20
2023-04-30T07:16:17.189Z,22.20
2023-04-30T07:18:45.070Z,22.30
2023-04-30T07:21:12.737Z,22.30
2023-04-30T07:23:40.375Z,22.30
2023-04-30T07:26:08.156Z,22.30
2023-04-30T07:28:35.592Z,22.30
2023-04-30T07:31:03.212Z,22.30
2023-04-30T07:33:31.255Z,22.30
2023-04-30T07:35:59.309Z,22.30
2023-04-30T07:38:27.238Z,22.30
2023-04-30T07:40:55.191Z,22.30
2023-04-30T07:43:22.805Z,22.30
2023-04-30T07:45:51.398Z,22.30
2023-04-30T07:48:19.087Z,22.40
2023-04-30T07:50:50.053Z,22.30
2023-04-30T07:53:19.129Z,22.30
2023-04-30T07:55:46.994Z,22.40
2023-04-30T07:58:14.675Z,22.40
2023-04-30T08:00:42.256Z,22.40
2023-04-30T08:03:10.027Z,22.40
2023-04-30T08:05:37.772Z,22.40
2023-04-30T08:08:08.768Z,22.40
2023-04-30T08:10:37.591Z,22.30
2023-04-30T08:13:06.108Z,22.40
2023-04-30T08:15:35.002Z,22.40
2023-04-30T08:18:03.341Z,22.30
2023-04-30T08:20:34.555Z,22.40
2023-04-30T08:23:03.219Z,22.40
2023-04-30T08:25:43.038Z,22.40
2023-04-30T08:28:10.749Z,22.40
2023-04-30T08:30:39.925Z,22.40
2023-04-30T08:33:07.592Z,22.40
2023-04-30T08:35:35.601Z,22.40
2023-04-30T08:38:03.667Z,22.40
2023-04-30T08:40:50.477Z,22.40
2023-04-30T08:43:20.596Z,22.40
2023-04-30T08:45:49.366Z,22.40
2023-04-30T08:48:21.825Z,22.40
2023-04-30T08:50:49.175Z,22.40
2023-04-30T08:53:18.200Z,22.40
2023-04-30T08:55:46.053Z,22.40
2023-04-30T08:58:13.923Z,22.40
2023-04-30T09:00:42.111Z,22.40
2023-04-30T09:03:10.608Z,22.40
2023-04-30T09:05:38.994Z,22.40
2023-04-30T09:08:09.212Z,22.40
2023-04-30T09:10:37.185Z,22.40
2023-04-30T09:13:12.703Z,22.50
2023-04-30T09:15:42.198Z,22.40
2023-04-30T09:18:18.175Z,22.50
2023-04-30T09:21:03.677Z,22.50
2023-04-30T09:23:31.651Z,22.50
2023-04-30T09:25:59.612Z,22.50
2023-04-30T09:28:29.134Z,22.50
2023-04-30T09:30:58.148Z,22.50
2023-04-30T09:33:26.633Z,22.50
2023-04-30T09:35:54.506Z,22.50
2023-04-30T09:38:31.904Z,22.50
2023-04-30T09:41:01.885Z,22.50
2023-04-30T09:43:31.397Z,22.60
2023-04-30T09:46:00.705Z,22.60
2023-04-30T09:48:28.980Z,22.60
2023-04-30T09:50:56.809Z,22.50
2023-04-30T09:53:24.527Z,22.60
2023-04-30T09:55:52.813Z,22.50
2023-04-30T09:58:20.974Z,22.50
2023-04-30T10:00:51.182Z,22.50
2023-04-30T10:03:21.218Z,22.50
2023-04-30T10:05:51.698Z,22.50
2023-04-30T10:08:32.119Z,22.50
2023-04-30T10:11:05.796Z,22.50
2023-04-30T10:13:42.831Z,22.50
2023-04-30T10:16:40.810Z,22.60
2023-04-30T10:19:16.040Z,22.50
2023-04-30T10:21:47.499Z,22.60
2023-04-30T10:24:20.444Z,22.60
2023-04-30T10:26:49.754Z,22.60
2023-04-30T10:29:19.131Z,22.60
2023-04-30T10:31:49.792Z,22.60
2023-04-30T10:34:50.942Z,22.70
2023-04-30T10:37:47.248Z,22.60
2023-04-30T10:40:15.296Z,22.70
2023-04-30T10:42:50.602Z,22.70
2023-04-30T10:45:20.992Z,22.70
2023-04-30T10:47:49.110Z,22.70
2023-04-30T10:50:16.974Z,22.80
2023-04-30T10:52:45.169Z,22.70
2023-04-30T10:55:17.795Z,22.80
2023-04-30T10:57:48.622Z,22.80
2023-04-30T11:00:28.122Z,22.80
2023-04-30T11:03:04.683Z,22.80
2023-04-30T11:05:40.184Z,22.80
2023-04-30T11:08:12.596Z,22.80
2023-04-30T11:11:00.380Z,22.80
2023-04-30T11:13:28.867Z,22.90
2023-04-30T11:16:04.738Z,22.90
2023-04-30T11:18:33.006Z,22.90
2023-04-30T11:21:04.074Z,22.90
2023-04-30T11:23:40.436Z,22.90
2023-04-30T11:26:10.685Z,22.90
2023-04-30T11:28:39.027Z,23.00
2023-04-30T11:31:07.072Z,23.00
2023-04-30T11:33:36.108Z,23.00
2023-04-30T11:36:03.926Z,23.00
2023-04-30T11:38:36.231Z,23.00
2023-04-30T11:41:05.488Z,23.00
2023-04-30T11:43:35.341Z,23.00
2023-04-30T11:46:12.199Z,23.00
2023-04-30T11:48:45.476Z,23.10
2023-04-30T11:51:21.660Z,23.10
2023-04-30T11:53:52.167Z,23.10
2023-04-30T11:56:24.689Z,23.10
2023-04-30T11:58:58.062Z,23.10
2023-04-30T12:01:29.960Z,23.10
2023-04-30T12:03:58.429Z,23.10
2023-04-30T12:06:29.091Z,23.10
2023-04-30T12:09:02.072Z,23.20
2023-04-30T12:11:33.098Z,23.20
2023-04-30T12:14:14.888Z,23.20
2023-04-30T12:16:53.456Z,23.20
2023-04-30T12:19:25.796Z,23.20
2023-04-30T12:21:55.504Z,23.20
2023-04-30T12:24:28.131Z,23.20
2023-04-30T12:26:56.905Z,23.20
2023-04-30T12:29:26.069Z,23.20
2023-04-30T12:31:55.714Z,23.30
2023-04-30T12:34:29.351Z,23.30
2023-04-30T12:36:59.858Z,23.30
2023-04-30T12:39:34.451Z,23.30
2023-04-30T12:42:02.624Z,23.30
2023-04-30T12:44:30.296Z,23.30
2023-04-30T12:47:01.000Z,23.30
2023-04-30T12:49:33.719Z,23.30
2023-04-30T12:52:13.733Z,23.30
2023-04-30T12:54:42.412Z,23.40
2023-04-30T12:57:12.834Z,23.40
2023-04-30T12:59:54.345Z,23.40
2023-04-30T13:02:28.853Z,23.40
2023-04-30T13:04:57.148Z,23.40
2023-04-30T13:07:25.404Z,23.40
2023-04-30T13:09:53.849Z,23.40
2023-04-30T13:12:22.689Z,23.40
2023-04-30T13:14:51.230Z,23.40
2023-04-30T13:17:19.541Z,23.40
2023-04-30T13:19:47.153Z,23.40
2023-04-30T13:22:15.274Z,23.40
2023-04-30T13:24:43.196Z,23.40
2023-04-30T13:27:12.065Z,23.40
2023-04-30T13:29:40.097Z,23.40
2023-04-30T13:32:08.752Z,23.50
2023-04-30T13:34:36.735Z,23.40
2023-04-30T13:37:05.104Z,23.40
2023-04-30T13:39:35.777Z,23.50
2023-04-30T13:42:04.415Z,23.50
2023-04-30T13:44:36.255Z,23.40
2023-04-30T13:47:03.971Z,23.50
2023-04-30T13:49:31.612Z,23.40
2023-04-30T13:52:02.267Z,23.40
2023-04-30T13:54:30.123Z,23.40
2023-04-30T13:57:02.377Z,23.40
2023-04-30T13:59:30.439Z,23.40
2023-04-30T14:01:58.963Z,23.40
2023-04-30T14:04:26.640Z,23.40
2023-04-30T14:06:56.993Z,23.40
2023-04-30T14:09:24.804Z,23.40
2023-04-30T14:11:52.580Z,23.40
2023-04-30T14:14:20.269Z,23.40
2023-04-30T14:16:48.061Z,23.40
2023-04-30T14:19:16.364Z,23.40
2023-04-30T14:21:44.082Z,23.40
2023-04-30T14:24:13.076Z,23.40
2023-04-30T14:26:43.373Z,23.40
2023-04-30T14:29:11.099Z,23.40
2023-04-30T14:31:39.212Z,23.40
2023-04-30T14:34:07.047Z,23.40
2023-04-30T14:36:36.453Z,23.40
2023-04-30T14:39:04.891Z,23.40
2023-04-30T14:41:37.068Z,23.40
2023-04-30T14:44:05.971Z,23.40
2023-04-30T14:46:33.807Z,23.40
2023-04-30T14:49:01.575Z,23.40
2023-04-30T14:51:29.486Z,23.40
2023-04-30T14:53:57.255Z,23.40
2023-04-30T14:56:25.337Z,23.40
2023-04-30T14:58:53.797Z,23.40
2023-04-30T15:01:21.593Z,23.40
2023-04-30T15:03:49.635Z,23.40
2023-04-30T15:06:17.554Z,23.40
2023-04-30T15:08:45.521Z,23.40
2023-04-30T15:11:13.498Z,23.40
2023-04-30T15:13:41.292Z,23.40
2023-04-30T15:16:09.257Z,23.40
2023-04-30T15:18:37.736Z,23.40
2023-04-30T15:21:06.016Z,23.40
2023-04-30T15:23:34.124Z,23.40
2023-04-30T15:26:04.828Z,23.40
2023-04-30T15:28:36.174Z,23.40
2023-04-30T15:31:04.778Z,23.40
2023-04-30T15:33:32.957Z,23.40
2023-04-30T15:36:00.881Z,23.40
2023-04-30T15:38:28.680Z,23.40
2023-04-30T15:40:56.633Z,23.40
2023-04-30T15:43:24.633Z,23.40
2023-04-30T15:45:52.277Z,23.40
2023-04-30T15:48:19.819Z,23.40
2023-04-30T15:50:47.607Z,23.40
2023-04-30T15:53:15.261Z,23.40
2023-04-30T15:55:43.490Z,23.40
2023-04-30T15:58:11.009Z,23.40
2023-04-30T16:00:38.764Z,23.40
2023-04-30T16:03:06.551Z,23.40
2023-04-30T16:05:38.897Z,23.40
2023-04-30T16:08:10.239Z,23.40
2023-04-30T16:10:39.409Z,23.40
2023-04-30T16:13:07.093Z,23.40
2023-04-30T16:15:34.828Z,23.40
2023-04-30T16:18:02.533Z,23.40
2023-04-30T16:20:31.699Z,23.40
2023-04-30T16:22:59.874Z,23.40
2023-04-30T16:25:27.531Z,23.40
2023-04-30T16:27:55.364Z,23.40
2023-04-30T16:30:23.164Z,23.40
2023-04-30T16:32:51.174Z,23.40
2023-04-30T16:35:19.472Z,23.40
2023-04-30T16:37:47.180Z,23.40
2023-04-30T16:40:14.763Z,23.40
2023-04-30T16:42:44.091Z,23.40
2023-04-30T16:45:11.937Z,23.50
2023-04-30T16:47:40.681Z,23.50
2023-04-30T16:50:09.308Z,23.60
2023-04-30T16:52:37.201Z,23.80
2023-04-30T16:55:06.038Z,23.90
2023-04-30T16:57:34.161Z,24.00
2023-04-30T17:00:02.343Z,24.00
2023-04-30T17:02:30.452Z,24.10
2023-04-30T17:04:58.583Z,24.20
2023-04-30T17:07:26.481Z,24.30
2023-04-30T17:09:54.789Z,24.40
2023-04-30T17:12:23.048Z,24.60
2023-04-30T17:14:51.234Z,24.70
2023-04-30T17:17:19.338Z,24.80
2023-04-30T17:19:47.170Z,25.00
2023-04-30T17:22:15.304Z,25.00
2023-04-30T17:24:43.071Z,25.20
2023-04-30T17:27:10.980Z,25.20
2023-04-30T17:29:38.728Z,25.40
2023-04-30T17:32:07.035Z,25.40
2023-04-30T17:34:35.310Z,25.50
2023-04-30T17:37:03.171Z,25.60
2023-04-30T17:39:34.259Z,25.70
2023-04-30T17:42:04.270Z,25.80
2023-04-30T17:44:33.249Z,25.90
2023-04-30T17:47:00.996Z,25.90
2023-04-30T17:49:28.914Z,25.90
2023-04-30T17:51:59.395Z,25.90
2023-04-30T17:54:29.244Z,26.00
2023-04-30T17:56:57.206Z,26.00
2023-04-30T17:59:26.685Z,26.00
2023-04-30T18:01:54.611Z,26.00
2023-04-30T18:04:22.891Z,26.00
2023-04-30T18:06:50.892Z,26.00
2023-04-30T18:09:19.100Z,26.00
2023-04-30T18:11:46.883Z,26.00
2023-04-30T18:14:14.907Z,26.00
2023-04-30T18:16:42.902Z,26.00
2023-04-30T18:19:11.216Z,25.90
2023-04-30T18:21:40.157Z,25.90
2023-04-30T18:24:07.795Z,25.90
2023-04-30T18:26:35.318Z,25.90
2023-04-30T18:29:03.340Z,25.80
2023-04-30T18:31:31.415Z,25.80
2023-04-30T18:34:01.788Z,25.80
2023-04-30T18:36:30.874Z,25.80
2023-04-30T18:38:58.878Z,25.80
2023-04-30T18:41:28.001Z,25.80
2023-04-30T18:43:56.181Z,25.70
2023-04-30T18:46:24.170Z,25.70
2023-04-30T18:48:51.920Z,25.80
2023-04-30T18:51:19.720Z,25.80
2023-04-30T18:53:48.029Z,25.70
2023-04-30T18:56:16.064Z,25.70
2023-04-30T18:58:49.889Z,25.70
2023-04-30T19:01:18.568Z,25.70
2023-04-30T19:03:46.536Z,25.70
2023-04-30T19:06:14.463Z,25.80
2023-04-30T19:08:44.883Z,25.70
2023-04-30T19:11:14.124Z,25.70
2023-04-30T19:13:44.582Z,25.70
2023-04-30T19:16:12.307Z,25.70
2023-04-30T19:18:40.314Z,25.70
2023-04-30T19:21:09.146Z,25.70
2023-04-30T19:23:36.795Z,25.60
2023-04-30T19:26:04.560Z,25.60
2023-04-30T19:28:32.153Z,25.60
2023-04-30T19:31:00.121Z,25.50
2023-04-30T19:33:28.796Z,25.50
2023-04-30T19:35:57.845Z,25.50
2023-04-30T19:38:25.308Z,25.50
2023-04-30T19:40:55.068Z,25.40
2023-04-30T19:43:24.262Z,25.40
2023-04-30T19:45:54.825Z,25.40
2023-04-30T19:48:23.840Z,25.30
2023-04-30T19:50:55.745Z,25.40
2023-04-30T19:53:25.709Z,25.30
2023-04-30T19:55:53.823Z,25.30
2023-04-30T19:58:21.608Z,25.20
2023-04-30T20:00:49.444Z,25.20
2023-04-30T20:03:18.315Z,25.20
2023-04-30T20:05:46.101Z,25.20
2023-04-30T20:08:14.008Z,25.20
2023-04-30T20:10:43.084Z,25.20
2023-04-30T20:13:10.861Z,25.20
2023-04-30T20:15:38.937Z,25.10
2023-04-30T20:18:06.959Z,25.10
2023-04-30T20:20:34.672Z,25.10
2023-04-30T20:23:14.537Z,25.10
2023-04-30T20:25:46.374Z,25.10
2023-04-30T20:28:15.400Z,25.00
2023-04-30T20:30:44.274Z,25.00
2023-04-30T20:33:13.676Z,25.00
2023-04-30T20:35:44.555Z,25.00
2023-04-30T20:38:13.189Z,25.00
2023-04-30T20:40:41.452Z,25.00
2023-04-30T20:43:12.062Z,25.00
2023-04-30T20:45:44.829Z,25.00
2023-04-30T20:48:12.752Z,24.90
2023-04-30T20:50:40.944Z,24.90
2023-04-30T20:53:11.055Z,24.90
2023-04-30T20:55:39.075Z,24.90
2023-04-30T20:58:08.170Z,24.80
2023-04-30T21:00:36.444Z,24.80
2023-04-30T21:03:04.719Z,24.80
2023-04-30T21:05:32.587Z,24.80
2023-04-30T21:08:01.851Z,24.80
2023-04-30T21:10:36.787Z,24.70
2023-04-30T21:13:06.192Z,24.70
2023-04-30T21:15:36.299Z,24.70
2023-04-30T21:18:04.268Z,24.60
2023-04-30T21:20:32.546Z,24.60
2023-04-30T21:23:02.072Z,24.60
2023-04-30T21:25:29.992Z,24.60
2023-04-30T21:27:57.879Z,24.50
2023-04-30T21:30:26.726Z,24.50
2023-04-30T21:32:59.189Z,24.50
2023-04-30T21:35:29.995Z,24.50
2023-04-30T21:37:57.773Z,24.40
2023-04-30T21:40:25.530Z,24.40
2023-04-30T21:42:53.492Z,24.40
2023-04-30T21:45:21.501Z,24.40
2023-04-30T21:47:49.849Z,24.40
2023-04-30T21:50:17.942Z,24.40
2023-04-30T21:52:45.529Z,24.30
2023-04-30T21:55:13.460Z,24.30
2023-04-30T21:57:41.210Z,24.30
2023-04-30T22:00:14.663Z,24.30
2023-04-30T22:02:49.690Z,24.30
2023-04-30T22:05:19.985Z,24.20
2023-04-30T22:07:48.364Z,24.20
2023-04-30T22:10:16.572Z,24.10
2023-04-30T22:12:47.342Z,24.10
2023-04-30T22:15:16.105Z,24.10
2023-04-30T22:17:44.242Z,24.00
2023-04-30T22:20:12.452Z,24.00
2023-04-30T22:22:40.172Z,24.00
2023-04-30T22:25:10.202Z,23.90
2023-04-30T22:27:37.965Z,23.90
2023-04-30T22:30:07.132Z,23.90
2023-04-30T22:32:35.202Z,23.90
2023-04-30T22:35:03.720Z,23.90
2023-04-30T22:37:31.623Z,23.80
2023-04-30T22:39:59.905Z,23.80
2023-04-30T22:42:27.642Z,23.80
2023-04-30T22:44:55.743Z,23.80
2023-04-30T22:47:23.860Z,23.80
2023-04-30T22:49:51.860Z,23.80
2023-04-30T22:52:20.261Z,23.80
2023-04-30T22:54:48.639Z,23.70
2023-04-30T22:57:18.420Z,23.70
2023-04-30T22:59:46.166Z,23.70
2023-04-30T23:02:14.823Z,23.70
2023-04-30T23:04:42.928Z,23.70
2023-04-30T23:07:11.484Z,23.60
2023-04-30T23:09:39.709Z,23.60
2023-04-30T23:12:07.489Z,23.60
2023-04-30T23:14:35.331Z,23.60
2023-04-30T23:17:03.797Z,23.60
2023-04-30T23:19:32.016Z,23.60
2023-04-30T23:22:00.180Z,23.60
2023-04-30T23:24:28.676Z,23.50
2023-04-30T23:26:57.946Z,23.60
2023-04-30T23:29:25.806Z,23.50
2023-04-30T23:31:54.317Z,23.50
2023-04-30T23:34:22.369Z,23.50
2023-04-30T23:36:50.160Z,23.50
2023-04-30T23:39:18.608Z,23.50
2023-04-30T23:41:47.635Z,23.50
2023-04-30T23:44:15.406Z,23.40
2023-04-30T23:46:43.564Z,23.40
2023-04-30T23:49:11.346Z,23.40
2023-04-30T23:51:41.897Z,23.40
2023-04-30T23:54:09.769Z,23.40
2023-04-30T23:56:37.601Z,23.40
2023-04-30T23:59:05.388Z,23.40
